createdAt,value
2022-10-10T00:01:26.530Z,9.50
2022-10-10T00:03:54.041Z,9.40
2022-10-10T00:06:21.504Z,9.40
2022-10-10T00:08:48.765Z,9.40
2022-10-10T00:11:17.816Z,9.40
2022-10-10T00:13:44.796Z,9.30
2022-10-10T00:16:12.377Z,9.30
2022-10-10T00:18:40.069Z,9.30
2022-10-10T00:21:07.577Z,9.30
2022-10-10T00:23:34.678Z,9.20
2022-10-10T00:26:04.476Z,9.00
2022-10-10T00:28:34.136Z,8.80
2022-10-10T00:31:00.880Z,8.80
2022-10-10T00:33:27.581Z,8.90
2022-10-10T00:35:54.297Z,8.80
2022-10-10T00:38:20.996Z,8.70
2022-10-10T00:40:54.356Z,8.50
2022-10-10T00:43:24.101Z,8.50
2022-10-10T00:45:50.984Z,8.60
2022-10-10T00:48:27.965Z,8.70
2022-10-10T00:50:59.282Z,8.70
2022-10-10T00:53:34.568Z,8.60
2022-10-10T00:56:02.371Z,8.40
2022-10-10T00:58:29.568Z,8.30
2022-10-10T01:00:57.006Z,8.20
2022-10-10T01:03:23.943Z,8.20
2022-10-10T01:05:51.545Z,8.20
2022-10-10T01:08:20.830Z,8.30
2022-10-10T01:11:18.201Z,8.30
2022-10-10T01:13:54.157Z,8.30
2022-10-10T01:16:31.208Z,8.30
2022-10-10T01:19:23.692Z,8.30
2022-10-10T01:22:16.382Z,8.30
2022-10-10T01:25:02.731Z,8.30
2022-10-10T01:27:43.820Z,8.30
2022-10-10T01:30:16.346Z,8.30
2022-10-10T01:32:57.137Z,8.20
2022-10-10T01:36:04.337Z,8.10
2022-10-10T01:38:35.666Z,8.10
2022-10-10T01:41:20.172Z,8.10
2022-10-10T01:43:47.114Z,8.00
2022-10-10T01:46:17.016Z,7.90
2022-10-10T01:48:46.841Z,7.80
2022-10-10T01:51:25.423Z,7.70
2022-10-10T01:54:18.543Z,7.70
2022-10-10T01:56:52.598Z,7.80
2022-10-10T01:59:57.656Z,7.80
2022-10-10T02:03:12.490Z,7.80
2022-10-10T02:06:03.975Z,7.80
2022-10-10T02:08:42.095Z,7.60
2022-10-10T02:11:10.635Z,7.50
2022-10-10T02:14:00.756Z,7.50
2022-10-10T02:16:35.066Z,7.40
2022-10-10T02:19:02.784Z,7.40
2022-10-10T02:21:30.216Z,7.40
2022-10-10T02:24:01.508Z,7.40
2022-10-10T02:26:31.048Z,7.40
2022-10-10T02:28:59.826Z,7.40
2022-10-10T02:32:00.024Z,7.40
2022-10-10T02:34:32.905Z,7.40
2022-10-10T02:37:03.717Z,7.40
2022-10-10T02:39:35.937Z,7.40
2022-10-10T02:42:05.751Z,7.30
2022-10-10T02:44:33.480Z,7.30
2022-10-10T02:47:00.273Z,7.40
2022-10-10T02:49:30.411Z,7.30
2022-10-10T02:51:57.589Z,7.30
2022-10-10T02:54:24.845Z,7.30
2022-10-10T02:56:51.692Z,7.30
2022-10-10T02:59:18.485Z,7.40
2022-10-10T03:01:45.483Z,7.40
2022-10-10T03:04:12.573Z,7.40
2022-10-10T03:06:39.768Z,7.40
2022-10-10T03:09:06.463Z,7.20
2022-10-10T03:11:33.185Z,7.20
2022-10-10T03:13:59.853Z,7.20
2022-10-10T03:16:26.636Z,7.20
2022-10-10T03:18:53.319Z,7.20
2022-10-10T03:21:19.990Z,7.30
2022-10-10T03:23:46.684Z,7.40
2022-10-10T03:26:13.402Z,7.30
2022-10-10T03:28:40.123Z,7.40
2022-10-10T03:31:06.832Z,7.50
2022-10-10T03:33:35.068Z,7.50
2022-10-10T03:36:02.654Z,7.50
2022-10-10T03:38:29.345Z,7.50
2022-10-10T03:40:56.017Z,7.60
2022-10-10T03:43:22.714Z,7.60
2022-10-10T03:45:49.625Z,7.60
2022-10-10T03:48:16.694Z,7.60
2022-10-10T03:50:43.353Z,7.60
2022-10-10T03:53:10.437Z,7.60
2022-10-10T03:55:40.601Z,7.70
2022-10-10T03:58:07.930Z,7.70
2022-10-10T04:00:35.185Z,7.70
2022-10-10T04:03:06.157Z,7.70
2022-10-10T04:05:34.854Z,7.70
2022-10-10T04:08:01.635Z,7.70
2022-10-10T04:10:28.334Z,7.70
2022-10-10T04:12:55.302Z,7.70
2022-10-10T04:15:21.970Z,7.70
2022-10-10T04:17:48.650Z,7.70
2022-10-10T04:20:15.430Z,7.70
2022-10-10T04:22:42.715Z,7.80
2022-10-10T04:25:09.995Z,7.90
2022-10-10T04:27:36.669Z,8.00
2022-10-10T04:30:04.940Z,8.00
2022-10-10T04:32:31.733Z,8.00
2022-10-10T04:34:58.705Z,8.00
2022-10-10T04:37:25.371Z,7.90
2022-10-10T04:39:52.055Z,7.90
2022-10-10T04:42:18.752Z,7.90
2022-10-10T04:44:45.444Z,7.90
2022-10-10T04:47:13.155Z,7.90
2022-10-10T04:49:41.943Z,7.80
2022-10-10T04:52:09.850Z,7.80
2022-10-10T04:54:36.890Z,7.80
2022-10-10T04:57:03.879Z,7.90
2022-10-10T04:59:30.762Z,8.00
2022-10-10T05:02:01.500Z,8.00
2022-10-10T05:04:28.785Z,8.00
2022-10-10T05:06:55.496Z,8.00
2022-10-10T05:09:22.212Z,8.00
2022-10-10T05:11:48.908Z,8.00
2022-10-10T05:14:15.689Z,8.10
2022-10-10T05:16:42.375Z,8.10
2022-10-10T05:19:09.097Z,8.00
2022-10-10T05:21:35.780Z,8.00
2022-10-10T05:24:02.855Z,8.00
2022-10-10T05:26:29.508Z,8.00
2022-10-10T05:28:56.332Z,8.00
2022-10-10T05:31:23.045Z,8.00
2022-10-10T05:33:49.730Z,8.00
2022-10-10T05:36:16.725Z,8.00
2022-10-10T05:38:43.546Z,8.10
2022-10-10T05:41:10.330Z,8.20
2022-10-10T05:43:37.078Z,8.20
2022-10-10T05:46:03.820Z,8.30
2022-10-10T05:48:31.050Z,8.30
2022-10-10T05:50:59.702Z,8.30
2022-10-10T05:53:27.606Z,8.30
2022-10-10T05:55:54.441Z,8.30
2022-10-10T05:58:21.127Z,8.20
2022-10-10T06:00:48.556Z,8.20
2022-10-10T06:03:17.176Z,8.20
2022-10-10T06:05:46.025Z,8.30
2022-10-10T06:08:12.821Z,8.30
2022-10-10T06:10:45.573Z,8.40
2022-10-10T06:13:13.284Z,8.40
2022-10-10T06:15:40.181Z,8.40
2022-10-10T06:18:07.417Z,8.40
2022-10-10T06:20:35.871Z,8.50
2022-10-10T06:23:04.702Z,8.50
2022-10-10T06:25:40.602Z,8.60
2022-10-10T06:28:08.532Z,8.60
2022-10-10T06:30:40.050Z,8.70
2022-10-10T06:33:07.533Z,8.70
2022-10-10T06:35:34.487Z,8.70
2022-10-10T06:38:01.158Z,8.80
2022-10-10T06:40:27.906Z,8.90
2022-10-10T06:42:54.844Z,8.90
2022-10-10T06:45:21.588Z,9.00
2022-10-10T06:47:48.247Z,9.00
2022-10-10T06:50:14.990Z,9.10
2022-10-10T06:52:41.669Z,9.20
2022-10-10T06:55:09.055Z,9.10
2022-10-10T06:57:35.824Z,9.20
2022-10-10T07:00:02.676Z,9.30
2022-10-10T07:02:29.373Z,9.30
2022-10-10T07:04:56.053Z,9.40
2022-10-10T07:07:22.705Z,9.40
2022-10-10T07:09:49.378Z,9.40
2022-10-10T07:12:16.353Z,9.50
2022-10-10T07:14:43.039Z,9.60
2022-10-10T07:17:09.718Z,9.60
2022-10-10T07:19:37.777Z,9.70
2022-10-10T07:22:04.949Z,9.80
2022-10-10T07:24:31.744Z,9.80
2022-10-10T07:27:04.894Z,9.90
2022-10-10T07:29:33.461Z,9.90
2022-10-10T07:32:00.209Z,10.00
2022-10-10T07:34:27.075Z,10.10
2022-10-10T07:36:53.728Z,10.20
2022-10-10T07:39:21.776Z,10.20
2022-10-10T07:41:49.544Z,10.30
2022-10-10T07:44:16.710Z,10.30
2022-10-10T07:46:43.648Z,10.50
2022-10-10T07:49:10.754Z,10.60
2022-10-10T07:51:37.932Z,10.70
2022-10-10T07:54:05.086Z,10.80
2022-10-10T07:56:31.866Z,10.90
2022-10-10T07:58:59.100Z,11.00
2022-10-10T08:01:25.843Z,11.10
2022-10-10T08:03:52.535Z,11.10
2022-10-10T08:06:19.204Z,11.20
2022-10-10T08:08:51.185Z,11.20
2022-10-10T08:11:19.160Z,11.30
2022-10-10T08:13:45.852Z,11.40
2022-10-10T08:16:13.083Z,11.40
2022-10-10T08:18:39.748Z,11.50
2022-10-10T08:21:08.931Z,11.60
2022-10-10T08:23:36.008Z,11.70
2022-10-10T08:26:05.158Z,11.70
2022-10-10T08:28:31.997Z,11.80
2022-10-10T08:31:01.947Z,11.90
2022-10-10T08:33:30.950Z,12.00
2022-10-10T08:35:57.658Z,12.00
2022-10-10T08:38:24.345Z,12.10
2022-10-10T08:41:06.329Z,12.10
2022-10-10T08:43:40.816Z,12.20
2022-10-10T08:46:18.219Z,12.30
2022-10-10T08:48:47.749Z,12.40
2022-10-10T08:51:23.983Z,12.50
2022-10-10T08:53:55.370Z,12.60
2022-10-10T08:56:29.557Z,12.70
2022-10-10T08:59:02.541Z,12.80
2022-10-10T09:01:35.223Z,12.90
2022-10-10T09:04:05.066Z,13.00
2022-10-10T09:07:04.170Z,13.10
2022-10-10T09:09:52.827Z,13.20
2022-10-10T09:12:29.488Z,13.30
2022-10-10T09:15:16.972Z,13.40
2022-10-10T09:18:33.364Z,13.50
2022-10-10T09:21:18.749Z,13.60
2022-10-10T09:23:53.154Z,13.70
2022-10-10T09:26:24.854Z,13.80
2022-10-10T09:29:00.298Z,13.90
2022-10-10T09:31:34.144Z,14.00
2022-10-10T09:34:07.126Z,14.00
2022-10-10T09:36:37.134Z,14.10
2022-10-10T09:39:19.198Z,14.20
2022-10-10T09:41:57.902Z,14.30
2022-10-10T09:44:24.840Z,14.40
2022-10-10T09:46:52.127Z,14.60
2022-10-10T09:49:20.318Z,14.70
2022-10-10T09:51:48.545Z,14.70
2022-10-10T09:54:17.773Z,14.90
2022-10-10T09:56:48.014Z,15.00
2022-10-10T09:59:45.027Z,15.10
2022-10-10T10:02:20.407Z,15.20
2022-10-10T10:04:48.532Z,15.30
2022-10-10T10:07:32.856Z,15.30
2022-10-10T10:10:02.105Z,15.40
2022-10-10T10:12:37.548Z,15.50
2022-10-10T10:15:16.044Z,15.60
2022-10-10T10:17:42.741Z,15.70
2022-10-10T10:20:35.686Z,15.80
2022-10-10T10:23:02.572Z,16.00
2022-10-10T10:25:31.981Z,15.90
2022-10-10T10:28:10.906Z,16.00
2022-10-10T10:30:45.144Z,16.10
2022-10-10T10:33:20.302Z,16.30
2022-10-10T10:36:10.678Z,16.50
2022-10-10T10:39:09.388Z,16.60
2022-10-10T10:41:51.388Z,16.70
2022-10-10T10:44:27.033Z,16.70
2022-10-10T10:47:10.890Z,16.60
2022-10-10T10:49:59.256Z,16.50
2022-10-10T10:52:32.586Z,16.50
2022-10-10T10:55:08.510Z,16.60
2022-10-10T10:58:05.146Z,16.60
2022-10-10T11:01:38.407Z,16.60
2022-10-10T11:05:24.331Z,16.80
2022-10-10T11:07:23.658Z,16.80
2022-10-10T11:10:24.255Z,16.90
2022-10-10T11:13:19.088Z,16.90
2022-10-10T11:16:24.366Z,16.90
2022-10-10T11:18:52.298Z,16.90
2022-10-10T11:21:26.751Z,16.90
2022-10-10T11:24:10.059Z,16.90
2022-10-10T11:26:44.060Z,16.90
2022-10-10T11:29:22.853Z,16.90
2022-10-10T11:32:03.067Z,16.80
2022-10-10T11:34:42.449Z,16.70
2022-10-10T11:37:17.883Z,16.70
2022-10-10T11:39:54.116Z,16.60
2022-10-10T11:42:33.419Z,16.70
2022-10-10T11:45:04.792Z,16.70
2022-10-10T11:47:49.751Z,16.70
2022-10-10T11:50:32.870Z,16.80
2022-10-10T11:53:41.268Z,16.90
2022-10-10T11:56:14.357Z,16.90
2022-10-10T11:58:45.853Z,16.90
2022-10-10T12:01:22.509Z,17.00
2022-10-10T12:03:51.594Z,17.00
2022-10-10T12:06:45.406Z,17.10
2022-10-10T12:09:27.576Z,17.10
2022-10-10T12:11:58.281Z,17.20
2022-10-10T12:14:27.878Z,17.30
2022-10-10T12:16:56.177Z,17.20
2022-10-10T12:19:26.004Z,17.20
2022-10-10T12:22:05.637Z,17.30
2022-10-10T12:24:42.516Z,17.30
2022-10-10T12:27:25.450Z,17.40
2022-10-10T12:29:55.138Z,17.40
2022-10-10T12:32:40.458Z,17.20
2022-10-10T12:35:41.944Z,17.20
2022-10-10T12:38:13.809Z,17.30
2022-10-10T12:41:05.375Z,17.20
2022-10-10T12:43:52.420Z,17.10
2022-10-10T12:46:26.358Z,17.20
2022-10-10T12:49:19.088Z,17.10
2022-10-10T12:52:02.185Z,17.10
2022-10-10T12:54:37.171Z,17.30
2022-10-10T12:57:19.683Z,17.30
2022-10-10T12:59:46.712Z,17.30
2022-10-10T13:02:23.565Z,17.20
2022-10-10T13:04:52.500Z,17.30
2022-10-10T13:07:21.730Z,17.30
2022-10-10T13:09:51.332Z,17.40
2022-10-10T13:12:32.395Z,17.30
2022-10-10T13:14:59.097Z,17.20
2022-10-10T13:17:46.029Z,17.10
2022-10-10T13:20:45.353Z,17.10
2022-10-10T13:23:14.303Z,17.20
2022-10-10T13:25:45.172Z,17.30
2022-10-10T13:28:19.912Z,17.30
2022-10-10T13:30:48.879Z,17.20
2022-10-10T13:33:21.626Z,17.10
2022-10-10T13:35:50.577Z,17.20
2022-10-10T13:38:19.904Z,17.20
2022-10-10T13:40:46.872Z,17.20
2022-10-10T13:43:15.808Z,17.10
2022-10-10T13:45:46.898Z,17.00
2022-10-10T13:48:28.116Z,16.90
2022-10-10T13:51:02.644Z,17.00
2022-10-10T13:53:30.344Z,16.90
2022-10-10T13:56:09.076Z,16.90
2022-10-10T13:59:00.677Z,16.90
2022-10-10T14:01:39.112Z,16.80
2022-10-10T14:04:08.148Z,16.80
2022-10-10T14:06:35.612Z,16.80
2022-10-10T14:09:25.368Z,16.80
2022-10-10T14:11:53.754Z,16.90
2022-10-10T14:14:26.599Z,16.90
2022-10-10T14:17:04.974Z,16.90
2022-10-10T14:19:33.048Z,17.00
2022-10-10T14:21:59.770Z,17.00
2022-10-10T14:24:26.454Z,17.00
2022-10-10T14:26:53.313Z,17.10
2022-10-10T14:29:21.009Z,17.30
2022-10-10T14:31:47.846Z,17.40
2022-10-10T14:34:15.409Z,18.90
2022-10-10T14:36:47.561Z,20.80
2022-10-10T14:39:16.915Z,21.70
2022-10-10T14:41:44.312Z,22.70
2022-10-10T14:44:11.141Z,22.80
2022-10-10T14:46:38.793Z,22.00
2022-10-10T14:49:08.699Z,21.10
2022-10-10T14:51:39.020Z,20.00
2022-10-10T14:54:11.961Z,19.40
2022-10-10T14:57:06.824Z,19.10
2022-10-10T14:59:46.286Z,18.50
2022-10-10T15:02:20.872Z,18.20
2022-10-10T15:04:47.968Z,17.90
2022-10-10T15:07:15.876Z,17.80
2022-10-10T15:10:10.886Z,17.50
2022-10-10T15:12:31.772Z,17.40
2022-10-10T15:14:58.454Z,17.20
2022-10-10T15:17:27.008Z,17.20
2022-10-10T15:19:53.775Z,17.20
2022-10-10T15:22:20.714Z,17.10
2022-10-10T15:24:47.389Z,17.10
2022-10-10T15:27:14.205Z,17.00
2022-10-10T15:29:40.940Z,17.30
2022-10-10T15:32:08.124Z,17.70
2022-10-10T15:34:35.146Z,17.70
2022-10-10T15:37:02.000Z,17.50
2022-10-10T15:39:30.719Z,17.30
2022-10-10T15:41:59.592Z,17.20
2022-10-10T15:44:30.510Z,17.10
2022-10-10T15:46:57.184Z,17.00
2022-10-10T15:49:23.982Z,16.90
2022-10-10T15:51:50.684Z,16.90
2022-10-10T15:54:17.358Z,16.90
2022-10-10T15:56:44.160Z,16.90
2022-10-10T15:59:13.265Z,16.90
2022-10-10T16:01:40.064Z,16.70
2022-10-10T16:04:06.853Z,16.70
2022-10-10T16:06:33.710Z,16.70
2022-10-10T16:09:23.428Z,16.60
2022-10-10T16:11:48.672Z,16.50
2022-10-10T16:14:15.404Z,16.50
2022-10-10T16:16:42.232Z,16.50
2022-10-10T16:19:08.907Z,16.50
2022-10-10T16:21:35.705Z,16.40
2022-10-10T16:24:02.741Z,16.40
2022-10-10T16:26:33.292Z,16.30
2022-10-10T16:29:01.421Z,16.20
2022-10-10T16:31:28.589Z,16.20
2022-10-10T16:33:57.256Z,16.10
2022-10-10T16:36:32.599Z,16.00
2022-10-10T16:38:59.906Z,15.90
2022-10-10T16:41:47.140Z,15.90
2022-10-10T16:44:14.762Z,15.70
2022-10-10T16:46:41.412Z,15.60
2022-10-10T16:49:08.101Z,15.60
2022-10-10T16:51:34.838Z,15.50
2022-10-10T16:54:02.118Z,15.30
2022-10-10T16:56:30.100Z,15.20
2022-10-10T16:58:59.228Z,15.10
2022-10-10T17:01:26.245Z,15.00
2022-10-10T17:03:53.437Z,14.90
2022-10-10T17:06:22.225Z,14.60
2022-10-10T17:08:50.808Z,14.40
2022-10-10T17:11:20.207Z,14.30
2022-10-10T17:13:48.097Z,14.10
2022-10-10T17:16:59.965Z,14.00
2022-10-10T17:19:08.289Z,14.00
2022-10-10T17:21:35.042Z,14.00
2022-10-10T17:24:01.764Z,13.90
2022-10-10T17:26:28.583Z,13.90
2022-10-10T17:28:57.647Z,13.90
2022-10-10T17:31:25.461Z,13.80
2022-10-10T17:33:54.580Z,13.70
2022-10-10T17:36:26.941Z,13.70
2022-10-10T17:38:55.913Z,13.60
2022-10-10T17:41:23.226Z,13.50
2022-10-10T17:43:50.208Z,13.40
2022-10-10T17:46:34.198Z,13.30
2022-10-10T17:49:02.920Z,13.20
2022-10-10T17:51:29.587Z,13.10
2022-10-10T17:53:59.520Z,13.10
2022-10-10T17:56:26.279Z,12.90
2022-10-10T17:58:52.941Z,12.90
2022-10-10T18:01:20.529Z,12.80
2022-10-10T18:03:48.168Z,12.70
2022-10-10T18:06:17.383Z,12.60
2022-10-10T18:08:46.527Z,12.60
2022-10-10T18:11:15.129Z,12.60
2022-10-10T18:13:41.798Z,12.60
2022-10-10T18:16:10.968Z,12.50
2022-10-10T18:18:38.837Z,12.40
2022-10-10T18:21:08.156Z,12.30
2022-10-10T18:23:35.545Z,12.20
2022-10-10T18:26:06.871Z,12.10
2022-10-10T18:28:36.176Z,12.10
2022-10-10T18:31:12.256Z,12.00
2022-10-10T18:33:40.664Z,11.90
2022-10-10T18:36:08.588Z,11.90
2022-10-10T18:38:35.550Z,11.80
2022-10-10T18:41:09.594Z,11.70
2022-10-10T18:43:36.621Z,11.70
2022-10-10T18:46:05.066Z,11.70
2022-10-10T18:48:32.205Z,11.70
2022-10-10T18:51:07.088Z,11.60
2022-10-10T18:53:38.935Z,11.50
2022-10-10T18:56:06.663Z,11.40
2022-10-10T18:58:35.808Z,11.40
2022-10-10T19:01:05.803Z,11.40
2022-10-10T19:03:32.975Z,11.30
2022-10-10T19:06:01.809Z,11.30
2022-10-10T19:08:28.720Z,11.20
2022-10-10T19:10:55.368Z,11.20
2022-10-10T19:13:22.054Z,11.10
2022-10-10T19:15:51.435Z,11.00
2022-10-10T19:18:22.412Z,10.90
2022-10-10T19:20:49.316Z,10.90
2022-10-10T19:23:16.068Z,10.80
2022-10-10T19:25:46.032Z,10.80
2022-10-10T19:28:12.939Z,10.80
2022-10-10T19:30:42.092Z,10.80
2022-10-10T19:33:10.110Z,10.80
2022-10-10T19:35:39.391Z,10.70
2022-10-10T19:38:06.967Z,10.60
2022-10-10T19:40:34.387Z,10.60
2022-10-10T19:43:01.797Z,10.50
2022-10-10T19:45:28.513Z,10.50
2022-10-10T19:47:55.327Z,10.50
2022-10-10T19:50:22.031Z,10.40
2022-10-10T19:52:48.784Z,10.40
2022-10-10T19:55:18.302Z,10.40
2022-10-10T19:57:45.001Z,10.40
2022-10-10T20:00:12.342Z,10.30
2022-10-10T20:02:39.089Z,10.20
2022-10-10T20:05:06.300Z,10.20
2022-10-10T20:07:32.988Z,10.10
2022-10-10T20:09:59.682Z,10.00
2022-10-10T20:12:26.410Z,10.00
2022-10-10T20:14:53.276Z,9.90
2022-10-10T20:17:20.118Z,9.90
2022-10-10T20:19:47.199Z,9.80
2022-10-10T20:22:14.219Z,9.70
2022-10-10T20:24:40.910Z,9.70
2022-10-10T20:27:07.618Z,9.70
2022-10-10T20:29:34.333Z,9.70
2022-10-10T20:32:01.112Z,9.70
2022-10-10T20:34:27.806Z,9.60
2022-10-10T20:36:54.851Z,9.60
2022-10-10T20:39:21.690Z,9.50
2022-10-10T20:41:48.563Z,9.50
2022-10-10T20:44:15.647Z,9.50
2022-10-10T20:46:44.814Z,9.50
2022-10-10T20:49:14.816Z,9.50
2022-10-10T20:51:42.250Z,9.50
2022-10-10T20:54:10.923Z,9.60
2022-10-10T20:56:37.667Z,9.60
2022-10-10T20:59:04.396Z,9.60
2022-10-10T21:01:31.607Z,9.50
2022-10-10T21:03:58.976Z,9.40
2022-10-10T21:06:31.950Z,9.40
2022-10-10T21:09:05.118Z,9.30
2022-10-10T21:11:32.078Z,9.30
2022-10-10T21:14:00.069Z,9.20
2022-10-10T21:16:32.589Z,9.10
2022-10-10T21:18:59.398Z,9.20
2022-10-10T21:21:29.493Z,9.10
2022-10-10T21:23:56.976Z,9.20
2022-10-10T21:26:26.186Z,9.10
2022-10-10T21:28:53.985Z,9.10
2022-10-10T21:31:26.968Z,9.10
2022-10-10T21:33:55.336Z,9.00
2022-10-10T21:36:26.723Z,9.00
2022-10-10T21:38:57.220Z,9.10
2022-10-10T21:41:24.846Z,9.00
2022-10-10T21:43:54.858Z,9.00
2022-10-10T21:46:36.544Z,8.90
2022-10-10T21:49:06.921Z,8.90
2022-10-10T21:51:37.298Z,8.80
2022-10-10T21:54:04.671Z,8.80
2022-10-10T21:56:31.446Z,8.80
2022-10-10T21:59:01.240Z,8.80
2022-10-10T22:01:29.165Z,8.80
2022-10-10T22:03:56.331Z,8.80
2022-10-10T22:06:25.033Z,8.80
2022-10-10T22:08:54.767Z,8.80
2022-10-10T22:11:23.949Z,8.70
2022-10-10T22:13:51.125Z,8.70
2022-10-10T22:16:18.686Z,8.70
2022-10-10T22:18:45.457Z,8.70
2022-10-10T22:21:15.587Z,8.60
2022-10-10T22:23:43.775Z,8.60
2022-10-10T22:26:12.706Z,8.50
2022-10-10T22:28:40.117Z,8.50
2022-10-10T22:31:12.100Z,8.50
2022-10-10T22:33:39.021Z,8.40
2022-10-10T22:36:06.986Z,8.30
2022-10-10T22:38:38.441Z,8.30
2022-10-10T22:41:05.214Z,8.30
2022-10-10T22:43:32.302Z,8.30
2022-10-10T22:45:59.410Z,8.40
2022-10-10T22:48:27.493Z,8.40
2022-10-10T22:51:02.666Z,8.40
2022-10-10T22:53:29.861Z,8.40
2022-10-10T22:55:56.816Z,8.50
2022-10-10T22:58:24.289Z,8.50
2022-10-10T23:00:51.330Z,8.50
2022-10-10T23:03:18.148Z,8.50
2022-10-10T23:05:45.680Z,8.60
2022-10-10T23:08:12.555Z,8.60
2022-10-10T23:10:39.274Z,8.70
2022-10-10T23:13:05.981Z,8.70
2022-10-10T23:15:32.688Z,8.70
2022-10-10T23:17:59.811Z,8.60
2022-10-10T23:20:26.611Z,8.70
2022-10-10T23:22:53.743Z,8.70
2022-10-10T23:25:20.702Z,8.80
2022-10-10T23:27:47.510Z,8.80
2022-10-10T23:30:14.371Z,8.80
2022-10-10T23:32:41.261Z,8.80
2022-10-10T23:35:08.761Z,8.90
2022-10-10T23:37:35.447Z,8.90
2022-10-10T23:40:02.447Z,9.00
2022-10-10T23:42:29.166Z,9.10
2022-10-10T23:44:55.837Z,9.10
2022-10-10T23:47:22.510Z,9.10
2022-10-10T23:49:49.186Z,9.00
2022-10-10T23:52:15.984Z,9.10
2022-10-10T23:54:42.668Z,9.20
2022-10-10T23:57:09.387Z,9.30
2022-10-10T23:59:36.041Z,9.40
